Time;durP1;ratioP1;P1;durP2;ratioP2;P2;SDS_P1;SDS_P2;PMS_P1;PMS_P2;Temp;Humidity;BMP_temperature;BMP_pressure;BME280_temperature;BME280_humidity;BME280_pressure;Samples;Min_cycle;Max_cycle;Signal;HPM_P1;HPM_P2
2023/12/19 00:01:37;;;;;;;16.20;9.63;;;29.50;99.90;;;;;;4996699;28;20301;-72
2023/12/19 00:04:06;;;;;;;24.57;11.60;;;29.30;99.90;;;;;;4996699;28;20217;-70
2023/12/19 00:06:33;;;;;;;30.08;12.45;;;29.10;99.90;;;;;;4996562;28;20198;-70
2023/12/19 00:09:01;;;;;;;20.87;11.77;;;29.10;99.90;;;;;;4996684;28;20171;-70
2023/12/19 00:11:28;;;;;;;24.97;14.40;;;29.00;99.90;;;;;;4996531;28;20530;-69
2023/12/19 00:13:55;;;;;;;27.77;12.70;;;29.10;99.90;;;;;;4979078;28;20599;-71
2023/12/19 00:16:22;;;;;;;28.33;15.57;;;29.20;99.90;;;;;;4996457;28;20174;-70
2023/12/19 00:18:50;;;;;;;28.43;15.03;;;29.10;99.90;;;;;;4996372;28;20179;-70
2023/12/19 00:21:17;;;;;;;34.77;14.97;;;29.10;99.90;;;;;;4996346;28;20229;-71
2023/12/19 00:23:44;;;;;;;21.37;14.20;;;29.30;99.90;;;;;;4996385;28;20290;-70
2023/12/19 00:26:16;;;;;;;27.73;15.20;;;29.50;99.90;;;;;;4996098;28;20269;-69
2023/12/19 00:28:44;;;;;;;31.90;14.65;;;29.60;99.90;;;;;;4996868;28;20179;-69
2023/12/19 00:31:22;;;;;;;24.93;13.87;;;29.50;99.90;;;;;;4996301;28;20178;-69
2023/12/19 00:33:49;;;;;;;28.73;13.85;;;29.80;99.90;;;;;;4979784;28;20181;-71
2023/12/19 00:36:21;;;;;;;27.87;14.20;;;29.90;99.90;;;;;;4996300;28;20193;-71
2023/12/19 00:38:49;;;;;;;38.92;14.75;;;30.30;99.90;;;;;;4978627;28;20202;-70
2023/12/19 00:41:17;;;;;;;39.75;15.80;;;30.40;99.90;;;;;;4997943;28;20289;-70
2023/12/19 00:43:45;;;;;;;31.35;12.60;;;30.50;99.90;;;;;;4981398;28;20184;-69
2023/12/19 00:46:13;;;;;;;26.97;11.93;;;30.60;99.90;;;;;;4997613;28;20280;-70
2023/12/19 00:48:40;;;;;;;21.80;11.80;;;30.60;99.90;;;;;;4997758;28;20687;-69
2023/12/19 00:51:11;;;;;;;29.42;14.43;;;30.90;99.90;;;;;;4996737;28;20531;-69
2023/12/19 00:53:39;;;;;;;30.13;15.50;;;31.10;99.90;;;;;;4996540;28;20175;-69
2023/12/19 00:56:10;;;;;;;39.63;15.93;;;31.20;99.90;;;;;;4996247;28;20183;-69
2023/12/19 00:58:37;;;;;;;33.40;15.57;;;31.20;99.90;;;;;;4995873;28;20775;-69
2023/12/19 01:01:08;;;;;;;34.08;15.38;;;30.90;99.90;;;;;;4995730;28;20334;-69
2023/12/19 01:03:37;;;;;;;27.42;15.70;;;30.90;99.90;;;;;;4996093;28;20179;-70
2023/12/19 01:06:05;;;;;;;26.48;16.95;;;31.30;99.90;;;;;;4995953;28;20221;-69
2023/12/19 01:08:36;;;;;;;33.92;16.80;;;31.40;99.90;;;;;;4995488;28;20186;-70
2023/12/19 01:11:03;;;;;;;36.50;17.73;;;31.50;99.90;;;;;;4994670;28;20270;-69
2023/12/19 01:13:30;;;;;;;29.60;17.30;;;31.60;99.90;;;;;;4995651;28;20225;-69
2023/12/19 01:15:58;;;;;;;28.13;18.70;;;31.60;99.90;;;;;;4995819;28;20182;-70
2023/12/19 01:18:25;;;;;;;33.88;19.85;;;31.60;99.90;;;;;;4995448;28;20258;-70
2023/12/19 01:20:52;;;;;;;33.63;21.08;;;31.30;99.90;;;;;;4995387;28;20206;-70
2023/12/19 01:23:20;;;;;;;43.30;24.02;;;31.10;99.90;;;;;;4995469;28;20175;-70
2023/12/19 01:25:47;;;;;;;35.00;21.38;;;31.20;99.90;;;;;;4995329;28;20171;-70
2023/12/19 01:28:15;;;;;;;34.63;21.25;;;31.30;99.90;;;;;;4995468;28;20299;-70
2023/12/19 01:30:42;;;;;;;37.95;22.45;;;31.50;99.90;;;;;;4995426;28;20182;-70
2023/12/19 01:33:10;;;;;;;31.08;22.25;;;31.70;99.90;;;;;;4977593;28;20528;-70
2023/12/19 01:35:38;;;;;;;29.58;24.17;;;32.00;99.90;;;;;;4994859;28;20183;-69
2023/12/19 01:38:05;;;;;;;31.95;24.23;;;31.90;99.90;;;;;;4995089;28;20249;-69
2023/12/19 01:40:32;;;;;;;31.38;22.35;;;31.90;99.90;;;;;;4994849;28;20202;-69
2023/12/19 01:46:21;;;;;;;33.80;26.80;;;32.00;99.90;;;;;;4994466;28;20236;-69
2023/12/19 01:48:49;;;;;;;42.53;28.63;;;31.80;99.90;;;;;;4995160;28;20190;-69
2023/12/19 01:51:17;;;;;;;47.22;29.52;;;31.80;99.90;;;;;;4994741;28;20186;-69
2023/12/19 01:53:47;;;;;;;48.28;31.10;;;31.80;99.90;;;;;;4994811;28;20567;-69
2023/12/19 01:56:17;;;;;;;45.72;32.28;;;31.80;99.90;;;;;;4994846;28;20556;-70
2023/12/19 01:58:45;;;;;;;73.90;34.53;;;31.80;99.90;;;;;;4994380;28;20229;-71
2023/12/19 02:01:15;;;;;;;52.83;33.80;;;32.00;99.90;;;;;;4994581;28;20257;-70
2023/12/19 02:03:43;;;;;;;51.97;35.70;;;32.20;99.90;;;;;;4994686;28;20258;-70
2023/12/19 02:06:11;;;;;;;50.90;38.50;;;32.40;99.90;;;;;;4994464;28;20250;-70
2023/12/19 02:08:38;;;;;;;47.85;40.35;;;32.70;99.90;;;;;;4994544;28;20171;-70
2023/12/19 02:11:06;;;;;;;54.22;43.78;;;32.90;99.90;;;;;;4994299;28;20203;-69
2023/12/19 02:13:33;;;;;;;56.95;44.47;;;33.10;99.90;;;;;;4994450;28;20174;-71
2023/12/19 02:16:00;;;;;;;55.13;46.95;;;33.30;99.90;;;;;;4994700;28;20178;-71
2023/12/19 02:18:28;;;;;;;58.35;46.22;;;33.50;99.90;;;;;;4994524;28;20167;-70
2023/12/19 02:20:55;;;;;;;56.17;49.53;;;33.70;99.90;;;;;;4994242;28;20221;-70
2023/12/19 02:23:23;;;;;;;58.83;50.55;;;33.90;99.90;;;;;;4994224;28;20629;-70
2023/12/19 02:25:51;;;;;;;82.13;52.35;;;34.20;99.90;;;;;;4994105;28;20655;-70
2023/12/19 02:28:19;;;;;;;56.85;50.05;;;34.10;99.90;;;;;;4994248;28;20174;-70
2023/12/19 02:30:46;;;;;;;63.67;52.05;;;34.30;99.90;;;;;;4994081;28;20232;-70
2023/12/19 02:33:13;;;;;;;62.53;54.33;;;34.60;99.90;;;;;;4994310;28;20206;-70
2023/12/19 02:35:41;;;;;;;63.72;53.15;;;34.40;99.90;;;;;;4994366;28;20692;-70
2023/12/19 02:38:08;;;;;;;60.67;51.38;;;34.60;99.90;;;;;;4994055;28;20309;-71
2023/12/19 02:40:35;;;;;;;57.28;51.40;;;34.50;99.90;;;;;;4993807;28;20260;-71
2023/12/19 02:43:03;;;;;;;60.58;49.85;;;34.60;99.90;;;;;;4993928;28;20489;-72
2023/12/19 02:45:31;;;;;;;61.65;50.88;;;34.40;99.90;;;;;;4992754;28;20237;-71
2023/12/19 02:47:59;;;;;;;73.22;50.33;;;34.30;99.90;;;;;;4993109;28;20191;-70
2023/12/19 02:50:26;;;;;;;58.13;45.60;;;34.30;99.90;;;;;;4993640;28;20636;-70
2023/12/19 02:52:53;;;;;;;52.25;46.70;;;34.30;99.90;;;;;;4976073;28;20195;-72
2023/12/19 02:55:21;;;;;;;54.38;48.50;;;34.20;99.90;;;;;;4953531;28;20191;-71
2023/12/19 02:57:48;;;;;;;54.65;48.78;;;34.10;99.90;;;;;;4991274;28;20191;-71
2023/12/19 03:00:15;;;;;;;59.10;48.08;;;34.10;99.90;;;;;;4991954;28;20288;-71
2023/12/19 03:02:44;;;;;;;50.40;42.63;;;34.10;99.90;;;;;;4991721;28;20182;-71
2023/12/19 03:05:11;;;;;;;50.85;42.33;;;34.10;99.90;;;;;;4991869;28;20178;-73
2023/12/19 03:07:39;;;;;;;48.17;43.17;;;34.00;99.90;;;;;;4991657;28;20182;-71
2023/12/19 03:10:08;;;;;;;46.88;41.72;;;34.00;99.90;;;;;;4991627;28;20290;-71
2023/12/19 03:12:35;;;;;;;47.33;42.38;;;33.80;99.90;;;;;;4991937;28;20609;-71
2023/12/19 03:15:04;;;;;;;48.80;42.75;;;33.70;99.90;;;;;;4991685;28;20641;-72
2023/12/19 03:17:31;;;;;;;45.88;40.55;;;33.70;99.90;;;;;;4991075;28;20253;-73
2023/12/19 03:19:58;;;;;;;43.42;38.90;;;33.90;99.90;;;;;;4991883;28;20175;-71
2023/12/19 03:22:26;;;;;;;43.67;39.22;;;33.90;99.90;;;;;;4991722;28;20268;-72
2023/12/19 03:24:53;;;;;;;44.63;39.20;;;33.80;99.90;;;;;;4973617;28;20244;-72
2023/12/19 03:27:20;;;;;;;43.90;37.47;;;33.90;99.90;;;;;;4991807;28;20190;-71
2023/12/19 03:29:47;;;;;;;45.03;37.00;;;34.10;99.90;;;;;;4991422;28;20189;-71
2023/12/19 03:32:15;;;;;;;39.92;35.95;;;34.10;99.90;;;;;;4992190;28;20174;-72
2023/12/19 03:34:42;;;;;;;43.97;36.30;;;34.20;99.90;;;;;;4996146;28;20237;-71
2023/12/19 03:37:09;;;;;;;44.85;37.45;;;34.40;99.90;;;;;;4978456;28;20223;-70
2023/12/19 03:39:37;;;;;;;58.65;36.25;;;34.40;99.90;;;;;;4995468;28;20265;-71
2023/12/19 03:42:04;;;;;;;96.38;38.28;;;34.40;99.90;;;;;;4998142;28;20688;-72
2023/12/19 03:44:32;;;;;;;57.15;34.15;;;34.40;99.90;;;;;;4993950;28;20281;-71
2023/12/19 03:46:59;;;;;;;62.70;33.15;;;34.80;99.90;;;;;;4986780;28;20599;-71
2023/12/19 03:49:28;;;;;;;42.13;28.80;;;35.10;99.90;;;;;;4994895;28;20205;-71
2023/12/19 03:51:55;;;;;;;30.88;27.52;;;35.20;99.90;;;;;;4994937;28;20218;-71
2023/12/19 03:54:24;;;;;;;34.97;28.17;;;35.40;99.90;;;;;;4993780;28;20178;-70
2023/12/19 03:56:53;;;;;;;33.55;28.35;;;35.50;99.90;;;;;;4996248;28;20190;-71
2023/12/19 03:59:20;;;;;;;33.75;27.23;;;35.60;99.90;;;;;;4997123;28;20214;-70
2023/12/19 04:01:48;;;;;;;27.63;24.67;;;35.60;99.90;;;;;;4996454;28;20233;-71
2023/12/19 04:04:17;;;;;;;26.30;21.55;;;35.80;99.90;;;;;;4996100;28;20187;-71
2023/12/19 04:06:44;;;;;;;27.50;18.73;;;35.90;99.80;;;;;;4995589;28;20245;-72
2023/12/19 04:09:12;;;;;;;30.40;15.05;;;36.00;96.40;;;;;;4994841;28;20171;-72
2023/12/19 04:11:46;;;;;;;14.93;13.32;;;35.80;88.30;;;;;;4994477;28;20229;-70
2023/12/19 04:14:14;;;;;;;15.18;12.27;;;35.60;81.60;;;;;;4993458;28;20179;-69
2023/12/19 04:16:42;;;;;;;22.20;12.23;;;35.40;77.90;;;;;;4995397;28;20183;-72
2023/12/19 04:19:10;;;;;;;16.92;12.45;;;35.30;79.90;;;;;;4995547;28;20175;-71
2023/12/19 04:21:37;;;;;;;15.40;11.23;;;35.20;80.50;;;;;;4981913;28;20659;-69
2023/12/19 04:24:06;;;;;;;16.23;11.15;;;35.30;79.40;;;;;;4994491;28;20183;-71
2023/12/19 04:26:33;;;;;;;14.02;11.25;;;35.40;75.40;;;;;;4994674;28;20183;-69
2023/12/19 04:29:00;;;;;;;14.93;10.93;;;35.40;74.90;;;;;;4994861;28;20185;-71
2023/12/19 04:31:28;;;;;;;9.82;8.75;;;35.70;74.70;;;;;;4994316;28;20175;-72
2023/12/19 04:33:55;;;;;;;14.10;8.30;;;35.80;64.00;;;;;;4994856;28;20182;-71
2023/12/19 04:36:23;;;;;;;38.53;8.75;;;35.70;64.40;;;;;;4994817;28;20189;-72
2023/12/19 04:38:50;;;;;;;19.83;6.95;;;35.80;62.10;;;;;;4993874;28;20545;-72
2023/12/19 04:41:17;;;;;;;11.02;5.55;;;35.80;60.50;;;;;;4994653;28;20305;-72
2023/12/19 04:43:45;;;;;;;9.57;5.45;;;35.70;57.90;;;;;;4995332;28;20179;-70
2023/12/19 04:46:12;;;;;;;7.57;4.80;;;35.60;54.80;;;;;;4993326;28;20261;-71
2023/12/19 04:48:41;;;;;;;35.00;6.70;;;35.60;55.50;;;;;;4994181;28;20624;-71
2023/12/19 04:51:17;;;;;;;24.45;5.93;;;35.60;56.10;;;;;;4995136;28;20417;-71
2023/12/19 04:53:45;;;;;;;8.07;4.10;;;35.80;56.10;;;;;;4994075;28;20180;-71
2023/12/19 04:56:12;;;;;;;8.70;4.28;;;35.80;53.80;;;;;;4994080;28;20190;-71
2023/12/19 04:58:41;;;;;;;6.30;4.10;;;35.90;54.90;;;;;;4993724;28;20230;-72
2023/12/19 05:01:08;;;;;;;9.35;3.88;;;36.10;52.70;;;;;;4991174;28;20257;-73
2023/12/19 05:03:39;;;;;;;11.02;4.95;;;36.20;49.60;;;;;;4994257;28;20178;-72
2023/12/19 05:06:08;;;;;;;9.75;3.80;;;36.20;50.30;;;;;;4993520;28;20691;-71
2023/12/19 05:08:35;;;;;;;10.63;4.15;;;36.40;51.60;;;;;;4993082;28;20318;-72
2023/12/19 05:11:03;;;;;;;5.45;3.95;;;36.40;48.30;;;;;;4993976;28;20186;-72
2023/12/19 05:13:30;;;;;;;6.32;4.35;;;36.50;47.70;;;;;;4993720;28;20236;-72
2023/12/19 05:15:57;;;;;;;19.67;5.38;;;36.70;46.80;;;;;;4993003;28;20745;-71
2023/12/19 05:18:25;;;;;;;5.97;4.25;;;36.80;45.40;;;;;;4993666;28;20178;-71
2023/12/19 05:20:52;;;;;;;6.63;5.30;;;36.80;43.70;;;;;;4993046;28;20221;-72
2023/12/19 05:23:19;;;;;;;8.15;6.70;;;36.70;44.30;;;;;;4993147;28;20552;-71
2023/12/19 05:25:46;;;;;;;13.80;10.40;;;36.90;47.20;;;;;;4989985;28;20181;-71
2023/12/19 05:28:14;;;;;;;31.08;11.63;;;36.80;52.30;;;;;;4993645;28;20309;-71
2023/12/19 05:30:43;;;;;;;16.20;11.38;;;37.00;56.10;;;;;;4992955;28;20253;-71
2023/12/19 05:33:10;;;;;;;17.52;9.20;;;37.10;55.20;;;;;;4993449;28;20171;-70
2023/12/19 05:39:02;;;;;;;7.13;3.90;;;36.30;50.60;;;;;;4984000;28;20281;-73
2023/12/19 05:41:30;;;;;;;6.70;3.88;;;36.20;45.80;;;;;;4976434;28;20226;-73
2023/12/19 05:43:59;;;;;;;12.07;4.43;;;36.40;46.50;;;;;;4992998;28;20187;-72
2023/12/19 05:46:27;;;;;;;5.80;3.35;;;36.60;46.00;;;;;;4992854;28;20238;-72
2023/12/19 05:48:55;;;;;;;8.25;3.08;;;36.50;44.60;;;;;;4992456;28;20556;-73
2023/12/19 05:51:22;;;;;;;4.43;2.80;;;36.30;41.30;;;;;;4993068;28;20194;-72
2023/12/19 05:53:49;;;;;;;6.28;3.10;;;36.20;40.40;;;;;;4973441;28;20179;-73
2023/12/19 05:56:17;;;;;;;10.70;3.05;;;35.90;41.30;;;;;;4990858;28;20189;-72
2023/12/19 05:58:46;;;;;;;7.22;2.63;;;35.90;42.50;;;;;;4992859;28;20373;-71
2023/12/19 06:01:14;;;;;;;7.55;2.90;;;36.00;39.70;;;;;;4992766;28;20219;-72
2023/12/19 06:03:41;;;;;;;5.80;2.50;;;35.90;41.70;;;;;;4993141;28;20580;-72
2023/12/19 06:06:12;;;;;;;21.45;3.90;;;35.80;42.50;;;;;;4993149;28;20262;-72
2023/12/19 06:08:40;;;;;;;10.77;4.90;;;35.80;42.70;;;;;;4992517;28;20658;-72
2023/12/19 06:11:07;;;;;;;10.30;6.82;;;36.00;42.70;;;;;;4993078;28;20297;-72
2023/12/19 06:13:35;;;;;;;12.57;11.23;;;35.80;48.90;;;;;;4993034;28;20590;-74
2023/12/19 06:16:03;;;;;;;31.50;15.93;;;35.80;57.70;;;;;;4992668;28;20218;-72
2023/12/19 06:18:30;;;;;;;21.40;18.10;;;35.70;66.70;;;;;;4992843;28;20198;-73
2023/12/19 06:21:00;;;;;;;22.80;20.02;;;35.60;74.40;;;;;;4992654;28;20294;-72
2023/12/19 06:23:30;;;;;;;22.83;20.50;;;35.40;81.10;;;;;;4992386;28;20183;-72
2023/12/19 06:25:57;;;;;;;22.95;20.52;;;35.10;83.60;;;;;;4993004;28;20568;-73
2023/12/19 06:28:25;;;;;;;24.92;21.75;;;34.90;88.60;;;;;;4993011;28;20175;-72
2023/12/19 06:30:52;;;;;;;24.95;20.92;;;34.90;90.00;;;;;;4992173;28;20197;-72
2023/12/19 06:33:20;;;;;;;24.20;21.15;;;34.90;86.90;;;;;;4992999;28;20187;-72
2023/12/19 06:35:53;;;;;;;24.80;22.15;;;34.90;86.90;;;;;;4993063;28;20182;-72
2023/12/19 06:38:21;;;;;;;26.23;21.85;;;34.80;90.40;;;;;;4992918;28;20265;-72
2023/12/19 06:40:48;;;;;;;26.60;22.40;;;34.70;94.00;;;;;;4994604;28;20205;-74
2023/12/19 06:43:15;;;;;;;29.00;24.23;;;34.60;98.20;;;;;;4994925;28;20175;-72
2023/12/19 06:45:43;;;;;;;26.50;23.90;;;34.30;97.50;;;;;;4994485;28;20289;-72
2023/12/19 06:48:10;;;;;;;28.67;24.98;;;34.00;97.70;;;;;;4993371;28;20257;-72
2023/12/19 06:50:41;;;;;;;27.42;24.63;;;33.90;97.20;;;;;;4992936;28;20175;-71
2023/12/19 06:53:08;;;;;;;27.58;24.10;;;33.80;98.40;;;;;;4992684;28;20183;-72
2023/12/19 06:55:36;;;;;;;27.50;24.60;;;33.60;97.20;;;;;;4993378;28;20190;-73
2023/12/19 06:58:03;;;;;;;27.05;24.20;;;33.60;99.00;;;;;;4992986;28;20185;-73
2023/12/19 07:00:32;;;;;;;25.67;22.95;;;33.50;98.30;;;;;;4992151;28;20692;-71
2023/12/19 07:02:59;;;;;;;27.25;22.80;;;33.40;97.30;;;;;;4992568;28;20277;-70
2023/12/19 07:05:26;;;;;;;26.90;24.02;;;33.20;98.50;;;;;;4992307;28;20266;-71
2023/12/19 07:07:54;;;;;;;26.25;23.55;;;33.00;99.90;;;;;;4991072;28;20175;-72
2023/12/19 07:10:21;;;;;;;28.45;23.45;;;32.90;99.90;;;;;;4992431;28;20675;-71
2023/12/19 07:12:48;;;;;;;25.65;22.92;;;32.90;99.90;;;;;;4992299;28;20179;-71
2023/12/19 07:15:16;;;;;;;23.80;21.25;;;32.70;99.90;;;;;;4991894;28;20181;-70
2023/12/19 07:17:46;;;;;;;23.30;20.67;;;32.60;99.90;;;;;;4975043;28;20190;-71
2023/12/19 07:20:13;;;;;;;21.13;18.92;;;32.60;99.90;;;;;;4992024;28;20262;-70
2023/12/19 07:22:41;;;;;;;25.23;19.08;;;32.50;99.90;;;;;;4993233;28;20186;-70
2023/12/19 07:25:09;;;;;;;22.75;19.13;;;32.30;99.90;;;;;;4970857;28;20174;-73
2023/12/19 07:27:37;;;;;;;22.63;18.95;;;32.30;99.90;;;;;;4991927;28;20179;-71
2023/12/19 07:30:05;;;;;;;19.85;17.33;;;32.20;99.90;;;;;;4991939;28;20640;-71
2023/12/19 07:32:33;;;;;;;18.60;16.48;;;32.10;99.90;;;;;;4991471;28;20175;-71
2023/12/19 07:35:00;;;;;;;21.60;18.00;;;32.00;99.90;;;;;;4992222;28;20647;-71
2023/12/19 07:37:27;;;;;;;18.50;16.48;;;31.80;99.90;;;;;;4991939;28;20532;-72
2023/12/19 07:39:55;;;;;;;18.80;16.85;;;31.70;99.90;;;;;;4991451;28;20197;-72
2023/12/19 07:42:22;;;;;;;18.90;16.95;;;31.60;99.90;;;;;;4991907;28;20331;-72
2023/12/19 07:44:51;;;;;;;20.60;17.43;;;31.60;99.90;;;;;;4991913;28;20191;-71
2023/12/19 07:47:18;;;;;;;26.95;16.02;;;31.40;99.90;;;;;;4991271;28;20179;-72
2023/12/19 07:49:46;;;;;;;20.33;16.63;;;31.40;99.90;;;;;;4972501;28;20191;-72
2023/12/19 07:52:14;;;;;;;17.10;15.10;;;31.40;99.90;;;;;;4972542;28;20188;-73
2023/12/19 07:54:41;;;;;;;18.45;16.40;;;31.30;99.90;;;;;;4972254;28;20219;-72
2023/12/19 07:57:08;;;;;;;21.95;17.15;;;31.30;99.90;;;;;;4972778;28;20218;-72
2023/12/19 07:59:36;;;;;;;18.48;16.48;;;31.30;99.90;;;;;;4985926;28;20298;-73
2023/12/19 08:02:03;;;;;;;18.92;16.10;;;31.30;99.90;;;;;;4990962;28;20305;-71
2023/12/19 08:04:31;;;;;;;21.13;17.03;;;31.20;99.90;;;;;;4991245;28;20179;-72
2023/12/19 08:06:58;;;;;;;22.52;19.42;;;31.30;99.90;;;;;;4991357;28;20282;-72
2023/12/19 08:09:28;;;;;;;23.58;17.25;;;31.40;99.90;;;;;;4990858;28;20190;-72
2023/12/19 08:11:59;;;;;;;16.77;15.07;;;31.40;99.90;;;;;;4991783;28;20194;-71
2023/12/19 08:14:27;;;;;;;16.77;15.18;;;31.40;99.90;;;;;;4991532;28;20279;-71
2023/12/19 08:16:54;;;;;;;16.95;15.35;;;31.40;99.90;;;;;;4991227;28;20248;-71
2023/12/19 08:19:22;;;;;;;18.42;16.50;;;31.40;99.90;;;;;;4992574;28;20876;-72
2023/12/19 08:21:55;;;;;;;19.83;17.00;;;31.40;99.90;;;;;;4995005;28;20215;-70
2023/12/19 08:24:22;;;;;;;18.92;16.98;;;31.40;99.90;;;;;;4994556;28;20244;-71
2023/12/19 08:26:50;;;;;;;18.40;16.55;;;31.50;99.90;;;;;;4994770;28;20602;-71
2023/12/19 08:29:18;;;;;;;19.30;16.58;;;31.50;99.90;;;;;;4994595;28;20549;-71
2023/12/19 08:31:46;;;;;;;19.77;17.02;;;31.40;99.10;;;;;;4994526;28;20263;-71
2023/12/19 08:34:16;;;;;;;28.67;16.77;;;31.50;98.40;;;;;;4994730;28;20179;-70
2023/12/19 08:36:44;;;;;;;15.85;14.30;;;31.50;97.40;;;;;;4988285;28;20197;-70
2023/12/19 08:39:11;;;;;;;20.10;12.77;;;31.50;94.40;;;;;;4993887;28;20187;-70
2023/12/19 08:41:39;;;;;;;14.43;12.73;;;31.60;90.20;;;;;;4994644;28;20305;-69
2023/12/19 08:44:06;;;;;;;14.57;13.15;;;31.60;86.90;;;;;;4994753;28;20551;-71
2023/12/19 08:46:33;;;;;;;17.83;11.77;;;31.60;88.40;;;;;;4993929;28;20233;-72
2023/12/19 08:49:02;;;;;;;14.95;11.05;;;31.50;77.50;;;;;;4993488;28;20183;-72
2023/12/19 08:51:29;;;;;;;14.97;12.07;;;31.50;74.40;;;;;;4994229;28;20194;-72
2023/12/19 08:53:56;;;;;;;18.02;11.23;;;31.60;74.00;;;;;;4994065;28;20182;-72
2023/12/19 08:56:24;;;;;;;14.10;12.70;;;31.50;70.40;;;;;;4994411;28;20182;-72
2023/12/19 08:58:51;;;;;;;13.57;10.55;;;31.50;72.70;;;;;;4993658;28;20230;-72
2023/12/19 09:01:19;;;;;;;14.45;10.70;;;31.40;69.00;;;;;;4993872;28;20221;-72
2023/12/19 09:03:46;;;;;;;14.85;11.60;;;31.30;71.00;;;;;;4994588;28;20186;-72
2023/12/19 09:06:14;;;;;;;10.68;9.68;;;31.30;71.70;;;;;;4995256;28;20210;-72
2023/12/19 09:08:41;;;;;;;13.60;10.48;;;31.40;69.00;;;;;;4994780;28;20182;-71
2023/12/19 09:11:08;;;;;;;12.77;10.30;;;31.40;69.30;;;;;;4995449;28;20213;-71
2023/12/19 09:13:38;;;;;;;11.75;10.55;;;31.20;73.70;;;;;;4995280;28;20174;-72
2023/12/19 09:16:07;;;;;;;13.80;10.40;;;31.10;74.30;;;;;;4995132;28;20515;-71
2023/12/19 09:18:34;;;;;;;16.02;8.68;;;30.80;99.90;;;;;;4995735;28;20175;-72
2023/12/19 09:21:01;;;;;;;17.67;8.00;;;30.00;99.90;;;;;;4995353;28;20672;-72
2023/12/19 09:23:28;;;;;;;17.27;8.10;;;29.40;99.90;;;;;;4995507;28;20171;-71
2023/12/19 09:25:56;;;;;;;17.50;7.93;;;28.80;99.90;;;;;;4995386;28;20240;-71
2023/12/19 09:28:23;;;;;;;12.27;6.73;;;28.50;99.90;;;;;;4994809;28;20255;-72
2023/12/19 09:30:51;;;;;;;14.40;6.03;;;28.20;99.90;;;;;;4994453;28;20187;-70
2023/12/19 09:33:18;;;;;;;13.10;4.90;;;28.10;99.90;;;;;;4995715;28;20187;-71
2023/12/19 09:35:45;;;;;;;8.63;4.27;;;27.70;99.90;;;;;;4994645;28;20186;-70
2023/12/19 09:38:13;;;;;;;13.83;4.40;;;27.50;99.90;;;;;;4995379;28;20171;-70
2023/12/19 09:40:40;;;;;;;10.63;3.90;;;27.10;99.90;;;;;;4994760;28;20253;-70
2023/12/19 09:43:08;;;;;;;7.43;3.57;;;26.70;99.90;;;;;;4995071;28;20178;-70
2023/12/19 09:45:35;;;;;;;10.40;4.30;;;26.50;99.90;;;;;;4994916;28;20179;-71
2023/12/19 09:48:03;;;;;;;12.30;4.30;;;26.20;99.90;;;;;;4995784;28;20182;-71
2023/12/19 09:50:37;;;;;;;11.53;4.47;;;26.10;99.90;;;;;;4976751;28;20179;-70
2023/12/19 09:53:07;;;;;;;10.37;4.07;;;25.90;99.90;;;;;;4975502;28;20187;-71
2023/12/19 09:55:42;;;;;;;12.83;4.10;;;25.70;99.90;;;;;;4994844;28;20262;-71
2023/12/19 09:58:12;;;;;;;12.67;4.27;;;25.60;99.90;;;;;;4994897;28;20220;-71
2023/12/19 10:00:44;;;;;;;11.63;4.13;;;25.40;99.90;;;;;;4994698;28;20567;-70
2023/12/19 10:03:12;;;;;;;9.60;4.40;;;25.40;99.90;;;;;;4994252;28;20179;-71
2023/12/19 10:05:42;;;;;;;17.20;4.53;;;25.20;99.90;;;;;;4994394;28;20186;-70
2023/12/19 10:08:10;;;;;;;11.37;4.03;;;25.00;99.90;;;;;;4994872;28;20174;-71
2023/12/19 10:10:50;;;;;;;10.93;4.57;;;24.90;99.90;;;;;;4993722;28;20190;-71
2023/12/19 10:13:26;;;;;;;12.60;4.33;;;24.90;99.90;;;;;;4993973;28;20208;-70
2023/12/19 10:16:06;;;;;;;11.73;4.00;;;24.90;99.90;;;;;;4994865;28;20569;-69
2023/12/19 10:18:34;;;;;;;11.80;4.17;;;24.80;99.90;;;;;;4995182;28;20171;-71
2023/12/19 10:21:05;;;;;;;13.53;4.50;;;24.80;99.90;;;;;;4994610;28;20353;-69
2023/12/19 10:23:33;;;;;;;12.93;4.30;;;24.70;99.90;;;;;;4994426;28;20205;-71
2023/12/19 10:26:01;;;;;;;12.20;4.10;;;24.50;99.90;;;;;;4995126;28;20175;-70
2023/12/19 10:28:31;;;;;;;13.47;4.93;;;24.20;99.90;;;;;;4994004;28;20190;-70
2023/12/19 10:31:11;;;;;;;9.47;4.13;;;24.10;99.90;;;;;;4994345;28;20292;-70
2023/12/19 10:33:46;;;;;;;10.70;4.33;;;23.90;99.90;;;;;;4981950;28;20182;-70
2023/12/19 10:36:33;;;;;;;7.07;3.47;;;23.70;99.90;;;;;;4985446;28;20652;-72
2023/12/19 10:39:05;;;;;;;11.00;4.17;;;23.40;99.90;;;;;;4990268;28;20182;-70
2023/12/19 10:41:34;;;;;;;10.93;3.80;;;23.30;99.90;;;;;;4992237;28;20225;-72
2023/12/19 10:44:02;;;;;;;18.23;4.60;;;23.30;99.90;;;;;;4992708;28;20189;-72
2023/12/19 10:46:32;;;;;;;15.57;5.27;;;23.10;99.90;;;;;;4992599;28;20280;-72
2023/12/19 10:49:04;;;;;;;9.77;4.37;;;23.10;99.90;;;;;;4991953;28;20179;-71
2023/12/19 10:51:42;;;;;;;12.83;4.47;;;23.00;99.90;;;;;;4992380;28;20193;-70
2023/12/19 10:54:11;;;;;;;15.27;4.50;;;22.90;99.90;;;;;;4992497;28;20208;-71
2023/12/19 10:57:08;;;;;;;21.77;5.00;;;22.80;99.90;;;;;;4992134;28;20186;-72
2023/12/19 11:00:11;;;;;;;13.93;4.93;;;22.70;99.90;;;;;;4981341;28;20281;-70
2023/12/19 11:02:41;;;;;;;13.73;5.37;;;22.70;99.90;;;;;;4989992;28;20230;-72
2023/12/19 11:05:33;;;;;;;21.10;5.57;;;22.60;99.90;;;;;;4992935;28;20210;-70
2023/12/19 11:08:09;;;;;;;21.07;5.30;;;22.60;99.90;;;;;;4975834;28;20240;-72
2023/12/19 11:10:40;;;;;;;17.00;5.37;;;22.60;99.90;;;;;;4993467;28;20649;-70
2023/12/19 11:13:11;;;;;;;23.60;6.43;;;22.60;99.90;;;;;;4977190;28;20198;-73
2023/12/19 11:15:44;;;;;;;23.73;6.13;;;22.60;99.90;;;;;;4993471;28;20648;-69
2023/12/19 11:18:39;;;;;;;17.20;6.50;;;22.60;99.90;;;;;;4993486;28;20185;-70
2023/12/19 11:21:16;;;;;;;23.80;5.80;;;22.60;99.90;;;;;;4993400;28;20225;-70
2023/12/19 11:24:08;;;;;;;24.03;6.37;;;22.70;99.90;;;;;;4993583;28;20194;-70
2023/12/19 11:26:45;;;;;;;23.63;6.27;;;22.80;99.90;;;;;;4988538;28;20197;-71
2023/12/19 11:29:50;;;;;;;28.73;6.40;;;22.70;99.90;;;;;;4991989;28;20662;-72
2023/12/19 11:32:29;;;;;;;23.63;5.87;;;22.80;99.90;;;;;;4993213;28;20671;-72
2023/12/19 11:35:11;;;;;;;19.83;6.27;;;22.80;99.90;;;;;;4991689;28;20229;-70
2023/12/19 11:37:40;;;;;;;19.77;5.87;;;22.80;99.90;;;;;;4992124;28;20187;-69
2023/12/19 11:40:09;;;;;;;24.20;6.67;;;22.90;99.90;;;;;;4991931;28;20185;-71
2023/12/19 11:42:39;;;;;;;25.57;6.83;;;22.80;99.90;;;;;;4991613;28;20205;-69
2023/12/19 11:45:26;;;;;;;23.53;5.53;;;22.80;99.90;;;;;;4992307;28;20237;-70
2023/12/19 11:47:55;;;;;;;19.83;5.57;;;22.80;99.90;;;;;;4979481;28;20225;-70
2023/12/19 11:50:42;;;;;;;19.73;5.90;;;22.90;99.90;;;;;;4990741;28;20572;-70
2023/12/19 11:53:09;;;;;;;16.33;5.47;;;22.90;99.90;;;;;;4990547;28;20687;-71
2023/12/19 11:55:37;;;;;;;25.43;5.80;;;22.90;99.90;;;;;;4994501;28;20285;-70
2023/12/19 11:58:11;;;;;;;17.17;5.13;;;22.90;99.90;;;;;;4992889;28;20190;-72
2023/12/19 12:00:38;;;;;;;17.93;4.70;;;23.00;99.90;;;;;;4995521;28;20210;-70
2023/12/19 12:03:10;;;;;;;16.67;4.30;;;23.00;99.90;;;;;;4995171;28;20179;-69
2023/12/19 12:05:37;;;;;;;16.23;4.53;;;23.00;99.90;;;;;;4994183;28;20202;-70
2023/12/19 12:08:05;;;;;;;10.50;3.93;;;22.90;99.90;;;;;;4994571;28;20190;-71
2023/12/19 12:10:32;;;;;;;12.30;5.00;;;22.90;99.90;;;;;;4994367;28;20270;-71
2023/12/19 12:13:04;;;;;;;13.60;4.30;;;22.90;99.90;;;;;;4994675;28;20182;-72
2023/12/19 12:15:31;;;;;;;9.87;3.53;;;22.90;99.90;;;;;;4992742;28;20190;-69
2023/12/19 12:18:07;;;;;;;11.03;4.00;;;23.00;99.90;;;;;;4994832;28;20640;-69
2023/12/19 12:20:34;;;;;;;9.27;3.63;;;23.00;99.90;;;;;;4995042;28;20276;-71
2023/12/19 12:23:05;;;;;;;9.37;3.37;;;23.00;99.90;;;;;;4995181;28;20189;-70
2023/12/19 12:25:32;;;;;;;9.13;3.13;;;22.90;99.90;;;;;;4994662;28;20257;-69
2023/12/19 12:28:17;;;;;;;11.23;3.57;;;22.80;99.90;;;;;;4994758;28;20695;-70
2023/12/19 12:30:44;;;;;;;10.87;3.93;;;22.80;99.90;;;;;;4996418;28;20273;-70
2023/12/19 12:33:12;;;;;;;11.20;3.50;;;22.70;99.90;;;;;;4996538;28;20187;-69
2023/12/19 12:35:39;;;;;;;7.00;2.83;;;22.60;99.90;;;;;;4996645;28;20282;-70
2023/12/19 12:38:16;;;;;;;10.50;3.40;;;22.50;99.90;;;;;;4997252;28;20241;-71
2023/12/19 12:41:04;;;;;;;12.07;3.57;;;22.50;99.90;;;;;;4996929;28;20218;-70
2023/12/19 12:43:39;;;;;;;9.10;4.00;;;22.50;99.90;;;;;;4997913;28;20645;-70
2023/12/19 12:46:13;;;;;;;14.23;4.60;;;22.50;99.90;;;;;;4979658;28;20580;-72
2023/12/19 12:49:01;;;;;;;15.40;4.60;;;22.50;99.90;;;;;;4997523;28;20600;-71
2023/12/19 12:51:29;;;;;;;14.60;4.37;;;22.50;99.90;;;;;;4996910;28;20193;-71